<?xml version="1.0" encoding="UTF-8" standalone="no" ?>
<gpx xmlns="http://www.topografix.com/GPX/1/1" xmlns:xsi="http://www.w3.org/2001/XMLSchema-instance" xsi:schemaLocation="http://www.topografix.com/GPX/1/1 http://www.topografix.com/GPX/1/1/gpx.xsd" version="1.1" creator="VisuGPX - https://www.visugpx.com">
  <metadata>
    <name>Davrinche20101</name>
    <desc><![CDATA[la partie 1 des repérages]]></desc>
  </metadata>
  <trk>
    <name><![CDATA[--Volvic-- OR-5358173:ser-fr01-b]]></name>
    <trkseg>
      <trkpt lat="45.8712" lon="3.02755">
        <ele>580</ele>
        <time>2015-10-17T12:36:47Z</time>
      </trkpt>
      <trkpt lat="45.87123" lon="3.0279">
        <ele>578</ele>
        <time>2015-10-17T12:38:47Z</time>
      </trkpt>
      <trkpt lat="45.87106" lon="3.02854">
        <ele>573</ele>
        <time>2015-10-17T12:40:47Z</time>
      </trkpt>
      <trkpt lat="45.87166" lon="3.02871">
        <ele>578</ele>
        <time>2015-10-17T12:42:47Z</time>
      </trkpt>
      <trkpt lat="45.87226" lon="3.0291">
        <ele>583</ele>
        <time>2015-10-17T12:44:47Z</time>
      </trkpt>
      <trkpt lat="45.87272" lon="3.02978">
        <ele>581</ele>
        <time>2015-10-17T12:46:47Z</time>
      </trkpt>
      <trkpt lat="45.87296" lon="3.03053">
        <ele>578</ele>
        <time>2015-10-17T12:48:47Z</time>
      </trkpt>
      <trkpt lat="45.87319" lon="3.03118">
        <ele>577</ele>
        <time>2015-10-17T12:50:47Z</time>
      </trkpt>
      <trkpt lat="45.87346" lon="3.03184">
        <ele>578</ele>
        <time>2015-10-17T12:52:47Z</time>
      </trkpt>
      <trkpt lat="45.87395" lon="3.03208">
        <ele>582</ele>
        <time>2015-10-17T12:54:47Z</time>
      </trkpt>
      <trkpt lat="45.87364" lon="3.03245">
        <ele>581</ele>
        <time>2015-10-17T12:56:47Z</time>
      </trkpt>
      <trkpt lat="45.8733" lon="3.03281">
        <ele>578</ele>
        <time>2015-10-17T12:58:47Z</time>
      </trkpt>
      <trkpt lat="45.8731" lon="3.0333">
        <ele>576</ele>
        <time>2015-10-17T13:00:47Z</time>
      </trkpt>
      <trkpt lat="45.87274" lon="3.0338">
        <ele>569</ele>
        <time>2015-10-17T13:02:47Z</time>
      </trkpt>
      <trkpt lat="45.873" lon="3.03382">
        <ele>574</ele>
        <time>2015-10-17T13:04:47Z</time>
      </trkpt>
      <trkpt lat="45.87329" lon="3.03349">
        <ele>580</ele>
        <time>2015-10-17T13:06:47Z</time>
      </trkpt>
      <trkpt lat="45.8736" lon="3.03339">
        <ele>586</ele>
        <time>2015-10-17T13:08:47Z</time>
      </trkpt>
      <trkpt lat="45.874" lon="3.03332">
        <ele>594</ele>
        <time>2015-10-17T13:10:47Z</time>
      </trkpt>
      <trkpt lat="45.87438" lon="3.03332">
        <ele>603</ele>
        <time>2015-10-17T13:12:47Z</time>
      </trkpt>
      <trkpt lat="45.87477" lon="3.03362">
        <ele>615</ele>
        <time>2015-10-17T13:14:47Z</time>
      </trkpt>
      <trkpt lat="45.8749" lon="3.03429">
        <ele>623</ele>
        <time>2015-10-17T13:16:47Z</time>
      </trkpt>
      <trkpt lat="45.87507" lon="3.03489">
        <ele>621</ele>
        <time>2015-10-17T13:18:47Z</time>
      </trkpt>
      <trkpt lat="45.87532" lon="3.03532">
        <ele>623</ele>
        <time>2015-10-17T13:20:47Z</time>
      </trkpt>
      <trkpt lat="45.87553" lon="3.03598">
        <ele>622</ele>
        <time>2015-10-17T13:22:47Z</time>
      </trkpt>
      <trkpt lat="45.87602" lon="3.03665">
        <ele>627</ele>
        <time>2015-10-17T13:24:47Z</time>
      </trkpt>
      <trkpt lat="45.87667" lon="3.03693">
        <ele>630</ele>
        <time>2015-10-17T13:26:47Z</time>
      </trkpt>
      <trkpt lat="45.87735" lon="3.0371">
        <ele>626</ele>
        <time>2015-10-17T13:28:47Z</time>
      </trkpt>
      <trkpt lat="45.87785" lon="3.03689">
        <ele>630</ele>
        <time>2015-10-17T13:30:47Z</time>
      </trkpt>
      <trkpt lat="45.87853" lon="3.03671">
        <ele>629</ele>
        <time>2015-10-17T13:32:47Z</time>
      </trkpt>
      <trkpt lat="45.87937" lon="3.03661">
        <ele>624</ele>
        <time>2015-10-17T13:34:47Z</time>
      </trkpt>
      <trkpt lat="45.88001" lon="3.03665">
        <ele>616</ele>
        <time>2015-10-17T13:36:47Z</time>
      </trkpt>
      <trkpt lat="45.88072" lon="3.03667">
        <ele>612</ele>
        <time>2015-10-17T13:38:47Z</time>
      </trkpt>
      <trkpt lat="45.8813" lon="3.03646">
        <ele>616</ele>
        <time>2015-10-17T13:40:47Z</time>
      </trkpt>
      <trkpt lat="45.88197" lon="3.03629">
        <ele>617</ele>
        <time>2015-10-17T13:42:47Z</time>
      </trkpt>
      <trkpt lat="45.88263" lon="3.03665">
        <ele>606</ele>
        <time>2015-10-17T13:44:47Z</time>
      </trkpt>
      <trkpt lat="45.88317" lon="3.03704">
        <ele>599</ele>
        <time>2015-10-17T13:46:47Z</time>
      </trkpt>
      <trkpt lat="45.88372" lon="3.03738">
        <ele>593</ele>
        <time>2015-10-17T13:48:47Z</time>
      </trkpt>
      <trkpt lat="45.88429" lon="3.03764">
        <ele>591</ele>
        <time>2015-10-17T13:50:47Z</time>
      </trkpt>
      <trkpt lat="45.88451" lon="3.03822">
        <ele>587</ele>
        <time>2015-10-17T13:52:47Z</time>
      </trkpt>
      <trkpt lat="45.88485" lon="3.03772">
        <ele>589</ele>
        <time>2015-10-17T13:54:47Z</time>
      </trkpt>
      <trkpt lat="45.88479" lon="3.03729">
        <ele>584</ele>
        <time>2015-10-17T13:56:47Z</time>
      </trkpt>
      <trkpt lat="45.88452" lon="3.0368">
        <ele>583</ele>
        <time>2015-10-17T13:58:47Z</time>
      </trkpt>
      <trkpt lat="45.8843" lon="3.03637">
        <ele>591</ele>
        <time>2015-10-17T14:00:47Z</time>
      </trkpt>
      <trkpt lat="45.88426" lon="3.03607">
        <ele>594</ele>
        <time>2015-10-17T14:02:47Z</time>
      </trkpt>
      <trkpt lat="45.88451" lon="3.03575">
        <ele>584</ele>
        <time>2015-10-17T14:04:47Z</time>
      </trkpt>
      <trkpt lat="45.88478" lon="3.03541">
        <ele>573</ele>
        <time>2015-10-17T14:06:47Z</time>
      </trkpt>
      <trkpt lat="45.88478" lon="3.03502">
        <ele>575</ele>
        <time>2015-10-17T14:08:47Z</time>
      </trkpt>
      <trkpt lat="45.88481" lon="3.03433">
        <ele>576</ele>
        <time>2015-10-17T14:10:47Z</time>
      </trkpt>
      <trkpt lat="45.88491" lon="3.03371">
        <ele>572</ele>
        <time>2015-10-17T14:12:47Z</time>
      </trkpt>
      <trkpt lat="45.88496" lon="3.03305">
        <ele>572</ele>
        <time>2015-10-17T14:14:47Z</time>
      </trkpt>
      <trkpt lat="45.88529" lon="3.03345">
        <ele>572</ele>
        <time>2015-10-17T14:16:47Z</time>
      </trkpt>
      <trkpt lat="45.88548" lon="3.03388">
        <ele>571</ele>
        <time>2015-10-17T14:18:47Z</time>
      </trkpt>
      <trkpt lat="45.8856" lon="3.03455">
        <ele>564</ele>
        <time>2015-10-17T14:20:47Z</time>
      </trkpt>
      <trkpt lat="45.88564" lon="3.03528">
        <ele>554</ele>
        <time>2015-10-17T14:22:47Z</time>
      </trkpt>
      <trkpt lat="45.88576" lon="3.03586">
        <ele>545</ele>
        <time>2015-10-17T14:24:47Z</time>
      </trkpt>
      <trkpt lat="45.88603" lon="3.03635">
        <ele>542</ele>
        <time>2015-10-17T14:26:47Z</time>
      </trkpt>
      <trkpt lat="45.88632" lon="3.03671">
        <ele>539</ele>
        <time>2015-10-17T14:28:47Z</time>
      </trkpt>
      <trkpt lat="45.88662" lon="3.03708">
        <ele>534</ele>
        <time>2015-10-17T14:30:47Z</time>
      </trkpt>
      <trkpt lat="45.88696" lon="3.03755">
        <ele>530</ele>
        <time>2015-10-17T14:32:47Z</time>
      </trkpt>
      <trkpt lat="45.88724" lon="3.03802">
        <ele>527</ele>
        <time>2015-10-17T14:34:47Z</time>
      </trkpt>
      <trkpt lat="45.88745" lon="3.03882">
        <ele>514</ele>
        <time>2015-10-17T14:36:47Z</time>
      </trkpt>
      <trkpt lat="45.88789" lon="3.03882">
        <ele>516</ele>
        <time>2015-10-17T14:38:47Z</time>
      </trkpt>
      <trkpt lat="45.88811" lon="3.03922">
        <ele>513</ele>
        <time>2015-10-17T14:40:47Z</time>
      </trkpt>
      <trkpt lat="45.88806" lon="3.03985">
        <ele>514</ele>
        <time>2015-10-17T14:42:47Z</time>
      </trkpt>
      <trkpt lat="45.88789" lon="3.04043">
        <ele>510</ele>
        <time>2015-10-17T14:44:47Z</time>
      </trkpt>
      <trkpt lat="45.88783" lon="3.04116">
        <ele>507</ele>
        <time>2015-10-17T14:46:47Z</time>
      </trkpt>
      <trkpt lat="45.88805" lon="3.04189">
        <ele>505</ele>
        <time>2015-10-17T14:48:47Z</time>
      </trkpt>
      <trkpt lat="45.88833" lon="3.04251">
        <ele>501</ele>
        <time>2015-10-17T14:50:47Z</time>
      </trkpt>
      <trkpt lat="45.88871" lon="3.04315">
        <ele>500</ele>
        <time>2015-10-17T14:52:47Z</time>
      </trkpt>
      <trkpt lat="45.88878" lon="3.04319">
        <ele>501</ele>
        <time>2015-10-17T14:54:47Z</time>
      </trkpt>
      <trkpt lat="45.88899" lon="3.0436">
        <ele>502</ele>
        <time>2015-10-17T14:56:47Z</time>
      </trkpt>
      <trkpt lat="45.88918" lon="3.04373">
        <ele>506</ele>
        <time>2015-10-17T14:58:47Z</time>
      </trkpt>
      <trkpt lat="45.88921" lon="3.04416">
        <ele>501</ele>
        <time>2015-10-17T15:00:47Z</time>
      </trkpt>
      <trkpt lat="45.88939" lon="3.04452">
        <ele>501</ele>
        <time>2015-10-17T15:02:47Z</time>
      </trkpt>
      <trkpt lat="45.88951" lon="3.04435">
        <ele>507</ele>
        <time>2015-10-17T15:04:47Z</time>
      </trkpt>
      <trkpt lat="45.88944" lon="3.04388">
        <ele>513</ele>
        <time>2015-10-17T15:06:47Z</time>
      </trkpt>
      <trkpt lat="45.88941" lon="3.04349">
        <ele>518</ele>
        <time>2015-10-17T15:08:47Z</time>
      </trkpt>
      <trkpt lat="45.88941" lon="3.04317">
        <ele>524</ele>
        <time>2015-10-17T15:10:47Z</time>
      </trkpt>
      <trkpt lat="45.88935" lon="3.04289">
        <ele>528</ele>
        <time>2015-10-17T15:12:47Z</time>
      </trkpt>
      <trkpt lat="45.88942" lon="3.04285">
        <ele>531</ele>
        <time>2015-10-17T15:14:47Z</time>
      </trkpt>
      <trkpt lat="45.88984" lon="3.04337">
        <ele>537</ele>
        <time>2015-10-17T15:16:47Z</time>
      </trkpt>
      <trkpt lat="45.88989" lon="3.04367">
        <ele>533</ele>
        <time>2015-10-17T15:18:47Z</time>
      </trkpt>
      <trkpt lat="45.89023" lon="3.04422">
        <ele>532</ele>
        <time>2015-10-17T15:20:47Z</time>
      </trkpt>
      <trkpt lat="45.89057" lon="3.04463">
        <ele>533</ele>
        <time>2015-10-17T15:22:47Z</time>
      </trkpt>
      <trkpt lat="45.89102" lon="3.04487">
        <ele>536</ele>
        <time>2015-10-17T15:24:47Z</time>
      </trkpt>
      <trkpt lat="45.89151" lon="3.04493">
        <ele>540</ele>
        <time>2015-10-17T15:26:47Z</time>
      </trkpt>
      <trkpt lat="45.89204" lon="3.04472">
        <ele>543</ele>
        <time>2015-10-17T15:28:47Z</time>
      </trkpt>
      <trkpt lat="45.89169" lon="3.04457">
        <ele>554</ele>
        <time>2015-10-17T15:30:47Z</time>
      </trkpt>
      <trkpt lat="45.89126" lon="3.0445">
        <ele>551</ele>
        <time>2015-10-17T15:32:47Z</time>
      </trkpt>
      <trkpt lat="45.89083" lon="3.04422">
        <ele>552</ele>
        <time>2015-10-17T15:34:47Z</time>
      </trkpt>
      <trkpt lat="45.89048" lon="3.04377">
        <ele>552</ele>
        <time>2015-10-17T15:36:47Z</time>
      </trkpt>
      <trkpt lat="45.89026" lon="3.04304">
        <ele>562</ele>
        <time>2015-10-17T15:38:47Z</time>
      </trkpt>
      <trkpt lat="45.89019" lon="3.04281">
        <ele>565</ele>
        <time>2015-10-17T15:40:47Z</time>
      </trkpt>
      <trkpt lat="45.88992" lon="3.04238">
        <ele>563</ele>
        <time>2015-10-17T15:42:47Z</time>
      </trkpt>
      <trkpt lat="45.88983" lon="3.04189">
        <ele>572</ele>
        <time>2015-10-17T15:44:47Z</time>
      </trkpt>
      <trkpt lat="45.88966" lon="3.04139">
        <ele>575</ele>
        <time>2015-10-17T15:46:47Z</time>
      </trkpt>
      <trkpt lat="45.88948" lon="3.04107">
        <ele>574</ele>
        <time>2015-10-17T15:48:47Z</time>
      </trkpt>
      <trkpt lat="45.88933" lon="3.04075">
        <ele>572</ele>
        <time>2015-10-17T15:50:47Z</time>
      </trkpt>
      <trkpt lat="45.88989" lon="3.04092">
        <ele>592</ele>
        <time>2015-10-17T15:52:47Z</time>
      </trkpt>
      <trkpt lat="45.89011" lon="3.04081">
        <ele>601</ele>
        <time>2015-10-17T15:54:47Z</time>
      </trkpt>
      <trkpt lat="45.88996" lon="3.0406">
        <ele>595</ele>
        <time>2015-10-17T15:56:47Z</time>
      </trkpt>
      <trkpt lat="45.89017" lon="3.04008">
        <ele>600</ele>
        <time>2015-10-17T15:58:47Z</time>
      </trkpt>
      <trkpt lat="45.89053" lon="3.0397">
        <ele>603</ele>
        <time>2015-10-17T16:00:47Z</time>
      </trkpt>
      <trkpt lat="45.89071" lon="3.03953">
        <ele>604</ele>
        <time>2015-10-17T16:02:47Z</time>
      </trkpt>
      <trkpt lat="45.89126" lon="3.03944">
        <ele>615</ele>
        <time>2015-10-17T16:04:47Z</time>
      </trkpt>
      <trkpt lat="45.8918" lon="3.03925">
        <ele>624</ele>
        <time>2015-10-17T16:06:47Z</time>
      </trkpt>
      <trkpt lat="45.89186" lon="3.0388">
        <ele>624</ele>
        <time>2015-10-17T16:08:47Z</time>
      </trkpt>
      <trkpt lat="45.89181" lon="3.03837">
        <ele>622</ele>
        <time>2015-10-17T16:10:47Z</time>
      </trkpt>
      <trkpt lat="45.89171" lon="3.03785">
        <ele>623</ele>
        <time>2015-10-17T16:12:47Z</time>
      </trkpt>
      <trkpt lat="45.89147" lon="3.03742">
        <ele>615</ele>
        <time>2015-10-17T16:14:47Z</time>
      </trkpt>
      <trkpt lat="45.89163" lon="3.03699">
        <ele>616</ele>
        <time>2015-10-17T16:16:47Z</time>
      </trkpt>
      <trkpt lat="45.89183" lon="3.03697">
        <ele>621</ele>
        <time>2015-10-17T16:18:47Z</time>
      </trkpt>
      <trkpt lat="45.89187" lon="3.03691">
        <ele>621</ele>
        <time>2015-10-17T16:20:47Z</time>
      </trkpt>
      <trkpt lat="45.89226" lon="3.03736">
        <ele>634</ele>
        <time>2015-10-17T16:22:47Z</time>
      </trkpt>
      <trkpt lat="45.89277" lon="3.03753">
        <ele>645</ele>
        <time>2015-10-17T16:24:47Z</time>
      </trkpt>
      <trkpt lat="45.89305" lon="3.03744">
        <ele>649</ele>
        <time>2015-10-17T16:26:47Z</time>
      </trkpt>
      <trkpt lat="45.89322" lon="3.03783">
        <ele>652</ele>
        <time>2015-10-17T16:28:47Z</time>
      </trkpt>
      <trkpt lat="45.89328" lon="3.03832">
        <ele>651</ele>
        <time>2015-10-17T16:30:47Z</time>
      </trkpt>
      <trkpt lat="45.89369" lon="3.0383">
        <ele>652</ele>
        <time>2015-10-17T16:32:47Z</time>
      </trkpt>
      <trkpt lat="45.89389" lon="3.03819">
        <ele>652</ele>
        <time>2015-10-17T16:34:47Z</time>
      </trkpt>
      <trkpt lat="45.89375" lon="3.0377">
        <ele>655</ele>
        <time>2015-10-17T16:36:47Z</time>
      </trkpt>
      <trkpt lat="45.89378" lon="3.03727">
        <ele>656</ele>
        <time>2015-10-17T16:38:47Z</time>
      </trkpt>
      <trkpt lat="45.89384" lon="3.03684">
        <ele>658</ele>
        <time>2015-10-17T16:40:47Z</time>
      </trkpt>
      <trkpt lat="45.89384" lon="3.03629">
        <ele>659</ele>
        <time>2015-10-17T16:42:47Z</time>
      </trkpt>
      <trkpt lat="45.89389" lon="3.03588">
        <ele>661</ele>
        <time>2015-10-17T16:44:47Z</time>
      </trkpt>
      <trkpt lat="45.89387" lon="3.03553">
        <ele>660</ele>
        <time>2015-10-17T16:46:47Z</time>
      </trkpt>
      <trkpt lat="45.89375" lon="3.03545">
        <ele>660</ele>
        <time>2015-10-17T16:48:47Z</time>
      </trkpt>
      <trkpt lat="45.89378" lon="3.03474">
        <ele>659</ele>
        <time>2015-10-17T16:50:47Z</time>
      </trkpt>
      <trkpt lat="45.89378" lon="3.0341">
        <ele>658</ele>
        <time>2015-10-17T16:52:47Z</time>
      </trkpt>
      <trkpt lat="45.89438" lon="3.03397">
        <ele>653</ele>
        <time>2015-10-17T16:54:47Z</time>
      </trkpt>
      <trkpt lat="45.89486" lon="3.03386">
        <ele>651</ele>
        <time>2015-10-17T16:56:47Z</time>
      </trkpt>
      <trkpt lat="45.89511" lon="3.03386">
        <ele>648</ele>
        <time>2015-10-17T16:58:47Z</time>
      </trkpt>
      <trkpt lat="45.89528" lon="3.03429">
        <ele>646</ele>
        <time>2015-10-17T17:00:47Z</time>
      </trkpt>
      <trkpt lat="45.89558" lon="3.0348">
        <ele>642</ele>
        <time>2015-10-17T17:02:47Z</time>
      </trkpt>
      <trkpt lat="45.89579" lon="3.0353">
        <ele>639</ele>
        <time>2015-10-17T17:04:47Z</time>
      </trkpt>
      <trkpt lat="45.89595" lon="3.03581">
        <ele>638</ele>
        <time>2015-10-17T17:06:47Z</time>
      </trkpt>
      <trkpt lat="45.8962" lon="3.03626">
        <ele>634</ele>
        <time>2015-10-17T17:08:47Z</time>
      </trkpt>
      <trkpt lat="45.89641" lon="3.03671">
        <ele>632</ele>
        <time>2015-10-17T17:10:47Z</time>
      </trkpt>
      <trkpt lat="45.89649" lon="3.03766">
        <ele>626</ele>
        <time>2015-10-17T17:12:47Z</time>
      </trkpt>
      <trkpt lat="45.89637" lon="3.03837">
        <ele>622</ele>
        <time>2015-10-17T17:14:47Z</time>
      </trkpt>
      <trkpt lat="45.89622" lon="3.03916">
        <ele>622</ele>
        <time>2015-10-17T17:16:47Z</time>
      </trkpt>
      <trkpt lat="45.89632" lon="3.03957">
        <ele>620</ele>
        <time>2015-10-17T17:18:47Z</time>
      </trkpt>
      <trkpt lat="45.89643" lon="3.04013">
        <ele>617</ele>
        <time>2015-10-17T17:20:47Z</time>
      </trkpt>
      <trkpt lat="45.89658" lon="3.04047">
        <ele>613</ele>
        <time>2015-10-17T17:22:47Z</time>
      </trkpt>
      <trkpt lat="45.89665" lon="3.04118">
        <ele>613</ele>
        <time>2015-10-17T17:24:47Z</time>
      </trkpt>
      <trkpt lat="45.89706" lon="3.04135">
        <ele>603</ele>
        <time>2015-10-17T17:26:47Z</time>
      </trkpt>
      <trkpt lat="45.89708" lon="3.04208">
        <ele>603</ele>
        <time>2015-10-17T17:28:47Z</time>
      </trkpt>
      <trkpt lat="45.89741" lon="3.04251">
        <ele>592</ele>
        <time>2015-10-17T17:30:47Z</time>
      </trkpt>
      <trkpt lat="45.89719" lon="3.04277">
        <ele>595</ele>
        <time>2015-10-17T17:32:47Z</time>
      </trkpt>
      <trkpt lat="45.89711" lon="3.04304">
        <ele>593</ele>
        <time>2015-10-17T17:34:47Z</time>
      </trkpt>
      <trkpt lat="45.89726" lon="3.04397">
        <ele>563</ele>
        <time>2015-10-17T17:36:47Z</time>
      </trkpt>
      <trkpt lat="45.89698" lon="3.04437">
        <ele>570</ele>
        <time>2015-10-17T17:38:47Z</time>
      </trkpt>
      <trkpt lat="45.89691" lon="3.04485">
        <ele>565</ele>
        <time>2015-10-17T17:40:47Z</time>
      </trkpt>
      <trkpt lat="45.89711" lon="3.04528">
        <ele>550</ele>
        <time>2015-10-17T17:42:47Z</time>
      </trkpt>
      <trkpt lat="45.89737" lon="3.04553">
        <ele>536</ele>
        <time>2015-10-17T17:44:47Z</time>
      </trkpt>
      <trkpt lat="45.89741" lon="3.04607">
        <ele>527</ele>
        <time>2015-10-17T17:46:47Z</time>
      </trkpt>
      <trkpt lat="45.8972" lon="3.04637">
        <ele>527</ele>
        <time>2015-10-17T17:48:47Z</time>
      </trkpt>
      <trkpt lat="45.89697" lon="3.04671">
        <ele>523</ele>
        <time>2015-10-17T17:50:47Z</time>
      </trkpt>
      <trkpt lat="45.8965" lon="3.04671">
        <ele>530</ele>
        <time>2015-10-17T17:52:47Z</time>
      </trkpt>
      <trkpt lat="45.89608" lon="3.04667">
        <ele>531</ele>
        <time>2015-10-17T17:54:47Z</time>
      </trkpt>
      <trkpt lat="45.89571" lon="3.04669">
        <ele>529</ele>
        <time>2015-10-17T17:56:47Z</time>
      </trkpt>
      <trkpt lat="45.89525" lon="3.04667">
        <ele>524</ele>
        <time>2015-10-17T17:58:47Z</time>
      </trkpt>
      <trkpt lat="45.89477" lon="3.04671">
        <ele>519</ele>
        <time>2015-10-17T18:00:47Z</time>
      </trkpt>
      <trkpt lat="45.89458" lon="3.04686">
        <ele>514</ele>
        <time>2015-10-17T18:02:47Z</time>
      </trkpt>
      <trkpt lat="45.89505" lon="3.04699">
        <ele>513</ele>
        <time>2015-10-17T18:04:47Z</time>
      </trkpt>
      <trkpt lat="45.89564" lon="3.04697">
        <ele>519</ele>
        <time>2015-10-17T18:06:47Z</time>
      </trkpt>
      <trkpt lat="45.89628" lon="3.04697">
        <ele>521</ele>
        <time>2015-10-17T18:08:47Z</time>
      </trkpt>
      <trkpt lat="45.89674" lon="3.04704">
        <ele>518</ele>
        <time>2015-10-17T18:10:47Z</time>
      </trkpt>
      <trkpt lat="45.89737" lon="3.04667">
        <ele>517</ele>
        <time>2015-10-17T18:12:47Z</time>
      </trkpt>
      <trkpt lat="45.89753" lon="3.04616">
        <ele>521</ele>
        <time>2015-10-17T18:14:47Z</time>
      </trkpt>
      <trkpt lat="45.89755" lon="3.04564">
        <ele>526</ele>
        <time>2015-10-17T18:16:47Z</time>
      </trkpt>
      <trkpt lat="45.89744" lon="3.04515">
        <ele>536</ele>
        <time>2015-10-17T18:18:47Z</time>
      </trkpt>
      <trkpt lat="45.89735" lon="3.04491">
        <ele>542</ele>
        <time>2015-10-17T18:20:47Z</time>
      </trkpt>
      <trkpt lat="45.89753" lon="3.04448">
        <ele>539</ele>
        <time>2015-10-17T18:22:47Z</time>
      </trkpt>
      <trkpt lat="45.89761" lon="3.04399">
        <ele>545</ele>
        <time>2015-10-17T18:24:47Z</time>
      </trkpt>
      <trkpt lat="45.89755" lon="3.04377">
        <ele>554</ele>
        <time>2015-10-17T18:26:47Z</time>
      </trkpt>
      <trkpt lat="45.89798" lon="3.04337">
        <ele>556</ele>
        <time>2015-10-17T18:28:47Z</time>
      </trkpt>
      <trkpt lat="45.89843" lon="3.04324">
        <ele>550</ele>
        <time>2015-10-17T18:30:47Z</time>
      </trkpt>
      <trkpt lat="45.89865" lon="3.04341">
        <ele>540</ele>
        <time>2015-10-17T18:32:47Z</time>
      </trkpt>
      <trkpt lat="45.899" lon="3.04268">
        <ele>556</ele>
        <time>2015-10-17T18:34:47Z</time>
      </trkpt>
      <trkpt lat="45.8994" lon="3.04242">
        <ele>556</ele>
        <time>2015-10-17T18:36:47Z</time>
      </trkpt>
      <trkpt lat="45.89961" lon="3.04204">
        <ele>560</ele>
        <time>2015-10-17T18:38:47Z</time>
      </trkpt>
      <trkpt lat="45.8994" lon="3.04176">
        <ele>562</ele>
        <time>2015-10-17T18:40:47Z</time>
      </trkpt>
      <trkpt lat="45.89907" lon="3.04152">
        <ele>564</ele>
        <time>2015-10-17T18:42:47Z</time>
      </trkpt>
      <trkpt lat="45.89885" lon="3.04126">
        <ele>569</ele>
        <time>2015-10-17T18:44:47Z</time>
      </trkpt>
      <trkpt lat="45.89859" lon="3.04077">
        <ele>574</ele>
        <time>2015-10-17T18:46:47Z</time>
      </trkpt>
      <trkpt lat="45.89852" lon="3.04045">
        <ele>576</ele>
        <time>2015-10-17T18:48:47Z</time>
      </trkpt>
      <trkpt lat="45.89858" lon="3.03989">
        <ele>579</ele>
        <time>2015-10-17T18:50:47Z</time>
      </trkpt>
      <trkpt lat="45.8988" lon="3.03938">
        <ele>580</ele>
        <time>2015-10-17T18:52:47Z</time>
      </trkpt>
      <trkpt lat="45.89886" lon="3.0389">
        <ele>581</ele>
        <time>2015-10-17T18:54:47Z</time>
      </trkpt>
      <trkpt lat="45.89876" lon="3.0383">
        <ele>586</ele>
        <time>2015-10-17T18:56:47Z</time>
      </trkpt>
      <trkpt lat="45.89859" lon="3.03796">
        <ele>589</ele>
        <time>2015-10-17T18:58:47Z</time>
      </trkpt>
      <trkpt lat="45.89852" lon="3.03749">
        <ele>591</ele>
        <time>2015-10-17T19:00:47Z</time>
      </trkpt>
      <trkpt lat="45.89862" lon="3.03701">
        <ele>590</ele>
        <time>2015-10-17T19:02:47Z</time>
      </trkpt>
      <trkpt lat="45.89871" lon="3.03667">
        <ele>589</ele>
        <time>2015-10-17T19:04:47Z</time>
      </trkpt>
      <trkpt lat="45.8987" lon="3.03631">
        <ele>588</ele>
        <time>2015-10-17T19:06:47Z</time>
      </trkpt>
      <trkpt lat="45.89883" lon="3.03588">
        <ele>588</ele>
        <time>2015-10-17T19:08:47Z</time>
      </trkpt>
      <trkpt lat="45.89858" lon="3.03571">
        <ele>587</ele>
        <time>2015-10-17T19:10:47Z</time>
      </trkpt>
      <trkpt lat="45.89837" lon="3.03556">
        <ele>586</ele>
        <time>2015-10-17T19:12:47Z</time>
      </trkpt>
      <trkpt lat="45.89823" lon="3.03517">
        <ele>588</ele>
        <time>2015-10-17T19:14:47Z</time>
      </trkpt>
      <trkpt lat="45.89818" lon="3.03478">
        <ele>590</ele>
        <time>2015-10-17T19:16:47Z</time>
      </trkpt>
      <trkpt lat="45.89809" lon="3.0344">
        <ele>594</ele>
        <time>2015-10-17T19:18:47Z</time>
      </trkpt>
      <trkpt lat="45.89803" lon="3.03399">
        <ele>597</ele>
        <time>2015-10-17T19:20:47Z</time>
      </trkpt>
      <trkpt lat="45.89806" lon="3.03332">
        <ele>599</ele>
        <time>2015-10-17T19:22:47Z</time>
      </trkpt>
      <trkpt lat="45.89794" lon="3.03311">
        <ele>601</ele>
        <time>2015-10-17T19:24:47Z</time>
      </trkpt>
      <trkpt lat="45.89813" lon="3.03277">
        <ele>596</ele>
        <time>2015-10-17T19:26:47Z</time>
      </trkpt>
      <trkpt lat="45.89835" lon="3.03244">
        <ele>592</ele>
        <time>2015-10-17T19:28:47Z</time>
      </trkpt>
      <trkpt lat="45.89856" lon="3.03208">
        <ele>598</ele>
        <time>2015-10-17T19:30:47Z</time>
      </trkpt>
      <trkpt lat="45.89853" lon="3.03169">
        <ele>597</ele>
        <time>2015-10-17T19:32:47Z</time>
      </trkpt>
      <trkpt lat="45.89822" lon="3.03191">
        <ele>594</ele>
        <time>2015-10-17T19:34:47Z</time>
      </trkpt>
      <trkpt lat="45.89797" lon="3.03206">
        <ele>597</ele>
        <time>2015-10-17T19:36:47Z</time>
      </trkpt>
      <trkpt lat="45.89777" lon="3.03195">
        <ele>600</ele>
        <time>2015-10-17T19:38:47Z</time>
      </trkpt>
      <trkpt lat="45.89744" lon="3.0318">
        <ele>603</ele>
        <time>2015-10-17T19:40:47Z</time>
      </trkpt>
      <trkpt lat="45.89713" lon="3.03154">
        <ele>609</ele>
        <time>2015-10-17T19:42:47Z</time>
      </trkpt>
      <trkpt lat="45.8968" lon="3.03135">
        <ele>614</ele>
        <time>2015-10-17T19:44:47Z</time>
      </trkpt>
      <trkpt lat="45.89656" lon="3.03135">
        <ele>618</ele>
        <time>2015-10-17T19:46:47Z</time>
      </trkpt>
      <trkpt lat="45.8967" lon="3.0318">
        <ele>617</ele>
        <time>2015-10-17T19:48:47Z</time>
      </trkpt>
      <trkpt lat="45.8968" lon="3.03229">
        <ele>622</ele>
        <time>2015-10-17T19:50:47Z</time>
      </trkpt>
      <trkpt lat="45.89694" lon="3.03279">
        <ele>623</ele>
        <time>2015-10-17T19:52:47Z</time>
      </trkpt>
      <trkpt lat="45.89686" lon="3.0332">
        <ele>627</ele>
        <time>2015-10-17T19:54:47Z</time>
      </trkpt>
      <trkpt lat="45.89682" lon="3.03365">
        <ele>628</ele>
        <time>2015-10-17T19:56:47Z</time>
      </trkpt>
      <trkpt lat="45.89671" lon="3.03397">
        <ele>631</ele>
        <time>2015-10-17T19:58:47Z</time>
      </trkpt>
      <trkpt lat="45.89641" lon="3.03386">
        <ele>635</ele>
        <time>2015-10-17T20:00:47Z</time>
      </trkpt>
      <trkpt lat="45.8961" lon="3.03365">
        <ele>639</ele>
        <time>2015-10-17T20:02:47Z</time>
      </trkpt>
      <trkpt lat="45.8958" lon="3.03373">
        <ele>641</ele>
        <time>2015-10-17T20:04:47Z</time>
      </trkpt>
      <trkpt lat="45.89552" lon="3.0338">
        <ele>644</ele>
        <time>2015-10-17T20:06:47Z</time>
      </trkpt>
      <trkpt lat="45.89526" lon="3.03388">
        <ele>646</ele>
        <time>2015-10-17T20:08:47Z</time>
      </trkpt>
      <trkpt lat="45.89468" lon="3.0339">
        <ele>652</ele>
        <time>2015-10-17T20:10:47Z</time>
      </trkpt>
      <trkpt lat="45.89389" lon="3.0341">
        <ele>657</ele>
        <time>2015-10-17T20:12:47Z</time>
      </trkpt>
      <trkpt lat="45.8938" lon="3.03386">
        <ele>658</ele>
        <time>2015-10-17T20:14:47Z</time>
      </trkpt>
      <trkpt lat="45.89387" lon="3.03289">
        <ele>656</ele>
        <time>2015-10-17T20:16:47Z</time>
      </trkpt>
      <trkpt lat="45.89384" lon="3.0321">
        <ele>655</ele>
        <time>2015-10-17T20:18:47Z</time>
      </trkpt>
      <trkpt lat="45.89362" lon="3.03159">
        <ele>654</ele>
        <time>2015-10-17T20:20:47Z</time>
      </trkpt>
      <trkpt lat="45.89352" lon="3.03088">
        <ele>655</ele>
        <time>2015-10-17T20:22:47Z</time>
      </trkpt>
      <trkpt lat="45.89332" lon="3.03028">
        <ele>660</ele>
        <time>2015-10-17T20:24:47Z</time>
      </trkpt>
      <trkpt lat="45.89301" lon="3.02987">
        <ele>664</ele>
        <time>2015-10-17T20:26:47Z</time>
      </trkpt>
      <trkpt lat="45.89265" lon="3.02972">
        <ele>666</ele>
        <time>2015-10-17T20:28:47Z</time>
      </trkpt>
      <trkpt lat="45.89222" lon="3.02948">
        <ele>666</ele>
        <time>2015-10-17T20:30:47Z</time>
      </trkpt>
      <trkpt lat="45.89184" lon="3.02933">
        <ele>664</ele>
        <time>2015-10-17T20:32:47Z</time>
      </trkpt>
      <trkpt lat="45.8916" lon="3.0289">
        <ele>668</ele>
        <time>2015-10-17T20:34:47Z</time>
      </trkpt>
      <trkpt lat="45.89138" lon="3.0285">
        <ele>671</ele>
        <time>2015-10-17T20:36:47Z</time>
      </trkpt>
      <trkpt lat="45.89102" lon="3.02815">
        <ele>672</ele>
        <time>2015-10-17T20:38:47Z</time>
      </trkpt>
      <trkpt lat="45.89075" lon="3.02792">
        <ele>673</ele>
        <time>2015-10-17T20:40:47Z</time>
      </trkpt>
      <trkpt lat="45.89057" lon="3.02766">
        <ele>677</ele>
        <time>2015-10-17T20:42:47Z</time>
      </trkpt>
      <trkpt lat="45.89033" lon="3.02785">
        <ele>678</ele>
        <time>2015-10-17T20:44:47Z</time>
      </trkpt>
      <trkpt lat="45.89036" lon="3.02832">
        <ele>674</ele>
        <time>2015-10-17T20:46:47Z</time>
      </trkpt>
      <trkpt lat="45.89041" lon="3.02897">
        <ele>665</ele>
        <time>2015-10-17T20:48:47Z</time>
      </trkpt>
      <trkpt lat="45.89027" lon="3.02944">
        <ele>660</ele>
        <time>2015-10-17T20:50:47Z</time>
      </trkpt>
      <trkpt lat="45.89007" lon="3.02976">
        <ele>657</ele>
        <time>2015-10-17T20:52:47Z</time>
      </trkpt>
      <trkpt lat="45.88989" lon="3.03011">
        <ele>652</ele>
        <time>2015-10-17T20:54:47Z</time>
      </trkpt>
      <trkpt lat="45.88942" lon="3.03036">
        <ele>651</ele>
        <time>2015-10-17T20:56:47Z</time>
      </trkpt>
      <trkpt lat="45.88887" lon="3.03077">
        <ele>652</ele>
        <time>2015-10-17T20:58:47Z</time>
      </trkpt>
      <trkpt lat="45.88863" lon="3.03126">
        <ele>650</ele>
        <time>2015-10-17T21:00:47Z</time>
      </trkpt>
      <trkpt lat="45.88845" lon="3.03193">
        <ele>646</ele>
        <time>2015-10-17T21:02:47Z</time>
      </trkpt>
      <trkpt lat="45.8883" lon="3.03232">
        <ele>646</ele>
        <time>2015-10-17T21:04:47Z</time>
      </trkpt>
      <trkpt lat="45.88802" lon="3.03268">
        <ele>642</ele>
        <time>2015-10-17T21:06:47Z</time>
      </trkpt>
      <trkpt lat="45.88769" lon="3.03257">
        <ele>640</ele>
        <time>2015-10-17T21:08:47Z</time>
      </trkpt>
      <trkpt lat="45.88732" lon="3.03249">
        <ele>635</ele>
        <time>2015-10-17T21:10:47Z</time>
      </trkpt>
      <trkpt lat="45.88685" lon="3.03229">
        <ele>626</ele>
        <time>2015-10-17T21:12:47Z</time>
      </trkpt>
      <trkpt lat="45.88642" lon="3.03208">
        <ele>616</ele>
        <time>2015-10-17T21:14:47Z</time>
      </trkpt>
      <trkpt lat="45.88614" lon="3.03191">
        <ele>608</ele>
        <time>2015-10-17T21:16:47Z</time>
      </trkpt>
      <trkpt lat="45.88596" lon="3.03163">
        <ele>604</ele>
        <time>2015-10-17T21:18:47Z</time>
      </trkpt>
      <trkpt lat="45.88581" lon="3.03122">
        <ele>605</ele>
        <time>2015-10-17T21:20:47Z</time>
      </trkpt>
      <trkpt lat="45.88564" lon="3.03086">
        <ele>608</ele>
        <time>2015-10-17T21:22:47Z</time>
      </trkpt>
      <trkpt lat="45.88554" lon="3.03064">
        <ele>610</ele>
        <time>2015-10-17T21:24:47Z</time>
      </trkpt>
      <trkpt lat="45.88551" lon="3.03023">
        <ele>616</ele>
        <time>2015-10-17T21:26:47Z</time>
      </trkpt>
      <trkpt lat="45.88545" lon="3.02987">
        <ele>620</ele>
        <time>2015-10-17T21:28:47Z</time>
      </trkpt>
      <trkpt lat="45.88526" lon="3.02955">
        <ele>622</ele>
        <time>2015-10-17T21:30:47Z</time>
      </trkpt>
      <trkpt lat="45.88505" lon="3.02944">
        <ele>621</ele>
        <time>2015-10-17T21:32:47Z</time>
      </trkpt>
      <trkpt lat="45.88485" lon="3.02965">
        <ele>622</ele>
        <time>2015-10-17T21:34:47Z</time>
      </trkpt>
      <trkpt lat="45.88469" lon="3.03002">
        <ele>621</ele>
        <time>2015-10-17T21:36:47Z</time>
      </trkpt>
      <trkpt lat="45.88457" lon="3.03038">
        <ele>620</ele>
        <time>2015-10-17T21:38:47Z</time>
      </trkpt>
      <trkpt lat="45.88457" lon="3.03083">
        <ele>614</ele>
        <time>2015-10-17T21:40:47Z</time>
      </trkpt>
      <trkpt lat="45.88446" lon="3.03107">
        <ele>614</ele>
        <time>2015-10-17T21:42:47Z</time>
      </trkpt>
      <trkpt lat="45.88415" lon="3.03096">
        <ele>623</ele>
        <time>2015-10-17T21:44:47Z</time>
      </trkpt>
      <trkpt lat="45.88382" lon="3.03105">
        <ele>628</ele>
        <time>2015-10-17T21:46:47Z</time>
      </trkpt>
      <trkpt lat="45.88351" lon="3.03118">
        <ele>632</ele>
        <time>2015-10-17T21:48:47Z</time>
      </trkpt>
      <trkpt lat="45.88331" lon="3.03081">
        <ele>641</ele>
        <time>2015-10-17T21:50:47Z</time>
      </trkpt>
      <trkpt lat="45.88308" lon="3.03077">
        <ele>643</ele>
        <time>2015-10-17T21:52:47Z</time>
      </trkpt>
      <trkpt lat="45.88287" lon="3.03094">
        <ele>643</ele>
        <time>2015-10-17T21:54:47Z</time>
      </trkpt>
      <trkpt lat="45.88287" lon="3.03129">
        <ele>641</ele>
        <time>2015-10-17T21:56:47Z</time>
      </trkpt>
      <trkpt lat="45.88288" lon="3.03178">
        <ele>640</ele>
        <time>2015-10-17T21:58:47Z</time>
      </trkpt>
      <trkpt lat="45.88288" lon="3.03199">
        <ele>641</ele>
        <time>2015-10-17T22:00:47Z</time>
      </trkpt>
      <trkpt lat="45.88266" lon="3.03189">
        <ele>647</ele>
        <time>2015-10-17T22:02:47Z</time>
      </trkpt>
      <trkpt lat="45.88243" lon="3.03152">
        <ele>649</ele>
        <time>2015-10-17T22:04:47Z</time>
      </trkpt>
      <trkpt lat="45.88221" lon="3.03126">
        <ele>653</ele>
        <time>2015-10-17T22:06:47Z</time>
      </trkpt>
      <trkpt lat="45.88203" lon="3.03086">
        <ele>654</ele>
        <time>2015-10-17T22:08:47Z</time>
      </trkpt>
      <trkpt lat="45.88185" lon="3.03064">
        <ele>657</ele>
        <time>2015-10-17T22:10:47Z</time>
      </trkpt>
      <trkpt lat="45.88166" lon="3.03026">
        <ele>661</ele>
        <time>2015-10-17T22:12:47Z</time>
      </trkpt>
      <trkpt lat="45.88149" lon="3.02991">
        <ele>664</ele>
        <time>2015-10-17T22:14:47Z</time>
      </trkpt>
      <trkpt lat="45.88142" lon="3.02948">
        <ele>667</ele>
        <time>2015-10-17T22:16:47Z</time>
      </trkpt>
      <trkpt lat="45.88116" lon="3.02933">
        <ele>670</ele>
        <time>2015-10-17T22:18:47Z</time>
      </trkpt>
      <trkpt lat="45.88072" lon="3.02877">
        <ele>674</ele>
        <time>2015-10-17T22:20:47Z</time>
      </trkpt>
      <trkpt lat="45.88045" lon="3.02854">
        <ele>675</ele>
        <time>2015-10-17T22:22:47Z</time>
      </trkpt>
      <trkpt lat="45.88022" lon="3.02824">
        <ele>673</ele>
        <time>2015-10-17T22:24:47Z</time>
      </trkpt>
      <trkpt lat="45.88" lon="3.02798">
        <ele>672</ele>
        <time>2015-10-17T22:26:47Z</time>
      </trkpt>
      <trkpt lat="45.87974" lon="3.02781">
        <ele>668</ele>
        <time>2015-10-17T22:28:47Z</time>
      </trkpt>
      <trkpt lat="45.87949" lon="3.02779">
        <ele>664</ele>
        <time>2015-10-17T22:30:47Z</time>
      </trkpt>
      <trkpt lat="45.87924" lon="3.02777">
        <ele>660</ele>
        <time>2015-10-17T22:32:47Z</time>
      </trkpt>
      <trkpt lat="45.87894" lon="3.02777">
        <ele>654</ele>
        <time>2015-10-17T22:34:47Z</time>
      </trkpt>
      <trkpt lat="45.87827" lon="3.02768">
        <ele>640</ele>
        <time>2015-10-17T22:36:47Z</time>
      </trkpt>
      <trkpt lat="45.87794" lon="3.02762">
        <ele>635</ele>
        <time>2015-10-17T22:38:47Z</time>
      </trkpt>
      <trkpt lat="45.87761" lon="3.02757">
        <ele>629</ele>
        <time>2015-10-17T22:40:47Z</time>
      </trkpt>
      <trkpt lat="45.87722" lon="3.02757">
        <ele>625</ele>
        <time>2015-10-17T22:42:47Z</time>
      </trkpt>
      <trkpt lat="45.87691" lon="3.02751">
        <ele>621</ele>
        <time>2015-10-17T22:44:47Z</time>
      </trkpt>
      <trkpt lat="45.87659" lon="3.02749">
        <ele>618</ele>
        <time>2015-10-17T22:46:47Z</time>
      </trkpt>
      <trkpt lat="45.8762" lon="3.02749">
        <ele>613</ele>
        <time>2015-10-17T22:48:47Z</time>
      </trkpt>
      <trkpt lat="45.8759" lon="3.02751">
        <ele>610</ele>
        <time>2015-10-17T22:50:47Z</time>
      </trkpt>
      <trkpt lat="45.8754" lon="3.0273">
        <ele>602</ele>
        <time>2015-10-17T22:52:47Z</time>
      </trkpt>
      <trkpt lat="45.87512" lon="3.02718">
        <ele>599</ele>
        <time>2015-10-17T22:54:47Z</time>
      </trkpt>
      <trkpt lat="45.87495" lon="3.02703">
        <ele>598</ele>
        <time>2015-10-17T22:56:47Z</time>
      </trkpt>
      <trkpt lat="45.87468" lon="3.02699">
        <ele>596</ele>
        <time>2015-10-17T22:58:47Z</time>
      </trkpt>
      <trkpt lat="45.8745" lon="3.02737">
        <ele>594</ele>
        <time>2015-10-17T23:00:47Z</time>
      </trkpt>
      <trkpt lat="45.87457" lon="3.02785">
        <ele>592</ele>
        <time>2015-10-17T23:02:47Z</time>
      </trkpt>
      <trkpt lat="45.87485" lon="3.02854">
        <ele>589</ele>
        <time>2015-10-17T23:04:47Z</time>
      </trkpt>
      <trkpt lat="45.87508" lon="3.02909">
        <ele>589</ele>
        <time>2015-10-17T23:06:47Z</time>
      </trkpt>
      <trkpt lat="45.87515" lon="3.0299">
        <ele>586</ele>
        <time>2015-10-17T23:08:47Z</time>
      </trkpt>
      <trkpt lat="45.87528" lon="3.03063">
        <ele>588</ele>
        <time>2015-10-17T23:10:47Z</time>
      </trkpt>
      <trkpt lat="45.87512" lon="3.03106">
        <ele>586</ele>
        <time>2015-10-17T23:12:47Z</time>
      </trkpt>
      <trkpt lat="45.8749" lon="3.03149">
        <ele>585</ele>
        <time>2015-10-17T23:14:47Z</time>
      </trkpt>
      <trkpt lat="45.8745" lon="3.03185">
        <ele>584</ele>
        <time>2015-10-17T23:16:47Z</time>
      </trkpt>
      <trkpt lat="45.87407" lon="3.03209">
        <ele>583</ele>
        <time>2015-10-17T23:18:47Z</time>
      </trkpt>
      <trkpt lat="45.87366" lon="3.03204">
        <ele>579</ele>
        <time>2015-10-17T23:20:47Z</time>
      </trkpt>
      <trkpt lat="45.87331" lon="3.03166">
        <ele>577</ele>
        <time>2015-10-17T23:22:47Z</time>
      </trkpt>
      <trkpt lat="45.87304" lon="3.0309">
        <ele>577</ele>
        <time>2015-10-17T23:24:47Z</time>
      </trkpt>
      <trkpt lat="45.87278" lon="3.03016">
        <ele>579</ele>
        <time>2015-10-17T23:26:47Z</time>
      </trkpt>
      <trkpt lat="45.87256" lon="3.02947">
        <ele>582</ele>
        <time>2015-10-17T23:28:47Z</time>
      </trkpt>
      <trkpt lat="45.8721" lon="3.02889">
        <ele>582</ele>
        <time>2015-10-17T23:30:47Z</time>
      </trkpt>
      <trkpt lat="45.87153" lon="3.02861">
        <ele>577</ele>
        <time>2015-10-17T23:32:47Z</time>
      </trkpt>
      <trkpt lat="45.87107" lon="3.02835">
        <ele>574</ele>
        <time>2015-10-17T23:34:47Z</time>
      </trkpt>
      <trkpt lat="45.87135" lon="3.02792">
        <ele>578</ele>
        <time>2015-10-17T23:36:47Z</time>
      </trkpt>
    </trkseg>
  </trk>
</gpx>